sensor_id;sensor_type;location;lat;lon;timestamp;P1;durP1;ratioP1;P2;durP2;ratioP2
74658;SDS011;63186;51.204;6.536;2023-09-18T00:01:32;10.38;;;5.35;;
74658;SDS011;63186;51.204;6.536;2023-09-18T00:03:57;8.83;;;4.53;;
74658;SDS011;63186;51.204;6.536;2023-09-18T00:06:23;10.77;;;5.05;;
74658;SDS011;63186;51.204;6.536;2023-09-18T00:08:50;9.75;;;4.38;;
74658;SDS011;63186;51.204;6.536;2023-09-18T00:11:16;10.60;;;5.28;;
74658;SDS011;63186;51.204;6.536;2023-09-18T00:13:41;9.70;;;4.90;;
74658;SDS011;63186;51.204;6.536;2023-09-18T00:16:06;9.93;;;5.03;;
74658;SDS011;63186;51.204;6.536;2023-09-18T00:18:32;9.73;;;5.10;;
74658;SDS011;63186;51.204;6.536;2023-09-18T00:20:57;9.30;;;4.60;;
74658;SDS011;63186;51.204;6.536;2023-09-18T00:23:23;11.57;;;5.47;;
74658;SDS011;63186;51.204;6.536;2023-09-18T00:25:48;9.33;;;4.90;;
74658;SDS011;63186;51.204;6.536;2023-09-18T00:28:13;11.77;;;4.87;;
74658;SDS011;63186;51.204;6.536;2023-09-18T00:30:42;12.33;;;4.70;;
74658;SDS011;63186;51.204;6.536;2023-09-18T00:33:11;10.80;;;5.72;;
74658;SDS011;63186;51.204;6.536;2023-09-18T00:35:36;9.60;;;4.87;;
74658;SDS011;63186;51.204;6.536;2023-09-18T00:38:02;12.10;;;4.97;;
74658;SDS011;63186;51.204;6.536;2023-09-18T00:40:29;9.27;;;4.60;;
74658;SDS011;63186;51.204;6.536;2023-09-18T00:42:54;11.07;;;5.15;;
74658;SDS011;63186;51.204;6.536;2023-09-18T00:45:20;11.20;;;5.40;;
74658;SDS011;63186;51.204;6.536;2023-09-18T00:47:45;10.63;;;4.55;;
74658;SDS011;63186;51.204;6.536;2023-09-18T00:50:11;9.73;;;4.88;;
74658;SDS011;63186;51.204;6.536;2023-09-18T00:52:39;11.30;;;4.97;;
74658;SDS011;63186;51.204;6.536;2023-09-18T00:55:05;9.55;;;4.88;;
74658;SDS011;63186;51.204;6.536;2023-09-18T00:57:32;13.07;;;5.45;;
74658;SDS011;63186;51.204;6.536;2023-09-18T00:59:57;10.75;;;5.45;;
74658;SDS011;63186;51.204;6.536;2023-09-18T01:02:22;11.20;;;5.32;;
74658;SDS011;63186;51.204;6.536;2023-09-18T01:04:49;14.30;;;6.00;;
74658;SDS011;63186;51.204;6.536;2023-09-18T01:07:14;10.25;;;5.40;;
74658;SDS011;63186;51.204;6.536;2023-09-18T01:09:40;12.13;;;5.88;;
74658;SDS011;63186;51.204;6.536;2023-09-18T01:17:21;11.20;;;5.70;;
74658;SDS011;63186;51.204;6.536;2023-09-18T01:19:47;12.30;;;5.68;;
74658;SDS011;63186;51.204;6.536;2023-09-18T01:22:19;12.50;;;5.53;;
74658;SDS011;63186;51.204;6.536;2023-09-18T01:24:45;14.10;;;6.85;;
74658;SDS011;63186;51.204;6.536;2023-09-18T01:27:15;12.05;;;5.68;;
74658;SDS011;63186;51.204;6.536;2023-09-18T01:29:45;12.98;;;7.10;;
74658;SDS011;63186;51.204;6.536;2023-09-18T01:32:11;12.05;;;5.47;;
74658;SDS011;63186;51.204;6.536;2023-09-18T01:34:38;10.52;;;4.93;;
74658;SDS011;63186;51.204;6.536;2023-09-18T01:37:06;16.13;;;5.35;;
74658;SDS011;63186;51.204;6.536;2023-09-18T01:39:34;9.63;;;5.03;;
74658;SDS011;63186;51.204;6.536;2023-09-18T01:42:01;11.40;;;5.07;;
74658;SDS011;63186;51.204;6.536;2023-09-18T01:46:54;9.85;;;4.40;;
74658;SDS011;63186;51.204;6.536;2023-09-18T01:49:26;9.77;;;5.35;;
74658;SDS011;63186;51.204;6.536;2023-09-18T01:51:52;11.90;;;5.50;;
74658;SDS011;63186;51.204;6.536;2023-09-18T01:54:17;12.07;;;5.37;;
74658;SDS011;63186;51.204;6.536;2023-09-18T01:56:43;11.47;;;5.77;;
74658;SDS011;63186;51.204;6.536;2023-09-18T01:59:08;10.13;;;4.80;;
74658;SDS011;63186;51.204;6.536;2023-09-18T02:01:34;10.13;;;4.85;;
74658;SDS011;63186;51.204;6.536;2023-09-18T02:04:00;12.23;;;4.72;;
74658;SDS011;63186;51.204;6.536;2023-09-18T02:06:25;9.80;;;4.80;;
74658;SDS011;63186;51.204;6.536;2023-09-18T02:08:50;10.53;;;5.40;;
74658;SDS011;63186;51.204;6.536;2023-09-18T02:11:16;8.90;;;4.45;;
74658;SDS011;63186;51.204;6.536;2023-09-18T02:13:41;12.77;;;5.47;;
74658;SDS011;63186;51.204;6.536;2023-09-18T02:16:07;9.82;;;4.97;;
74658;SDS011;63186;51.204;6.536;2023-09-18T02:18:32;9.87;;;4.83;;
74658;SDS011;63186;51.204;6.536;2023-09-18T02:20:58;11.18;;;5.25;;
74658;SDS011;63186;51.204;6.536;2023-09-18T02:23:23;11.03;;;5.03;;
74658;SDS011;63186;51.204;6.536;2023-09-18T02:25:55;9.43;;;4.63;;
74658;SDS011;63186;51.204;6.536;2023-09-18T02:28:23;12.43;;;5.97;;
74658;SDS011;63186;51.204;6.536;2023-09-18T02:30:49;9.63;;;4.57;;
74658;SDS011;63186;51.204;6.536;2023-09-18T02:33:14;10.20;;;5.13;;
74658;SDS011;63186;51.204;6.536;2023-09-18T02:35:40;9.95;;;4.78;;
74658;SDS011;63186;51.204;6.536;2023-09-18T02:38:05;9.85;;;4.82;;
74658;SDS011;63186;51.204;6.536;2023-09-18T02:40:31;11.63;;;5.30;;
74658;SDS011;63186;51.204;6.536;2023-09-18T02:42:56;10.60;;;4.73;;
74658;SDS011;63186;51.204;6.536;2023-09-18T02:45:21;11.30;;;5.73;;
74658;SDS011;63186;51.204;6.536;2023-09-18T02:47:47;11.07;;;4.93;;
74658;SDS011;63186;51.204;6.536;2023-09-18T02:50:12;10.73;;;4.60;;
74658;SDS011;63186;51.204;6.536;2023-09-18T02:52:37;12.15;;;4.43;;
74658;SDS011;63186;51.204;6.536;2023-09-18T02:55:03;11.77;;;5.50;;
74658;SDS011;63186;51.204;6.536;2023-09-18T02:57:28;11.40;;;5.00;;
74658;SDS011;63186;51.204;6.536;2023-09-18T02:59:53;9.97;;;4.37;;
74658;SDS011;63186;51.204;6.536;2023-09-18T03:02:18;12.73;;;4.47;;
74658;SDS011;63186;51.204;6.536;2023-09-18T03:04:44;10.73;;;4.80;;
74658;SDS011;63186;51.204;6.536;2023-09-18T03:07:09;10.03;;;4.43;;
74658;SDS011;63186;51.204;6.536;2023-09-18T03:09:34;8.85;;;4.53;;
74658;SDS011;63186;51.204;6.536;2023-09-18T03:12:00;9.95;;;4.82;;
74658;SDS011;63186;51.204;6.536;2023-09-18T03:14:26;10.43;;;5.30;;
74658;SDS011;63186;51.204;6.536;2023-09-18T03:16:51;9.83;;;5.17;;
74658;SDS011;63186;51.204;6.536;2023-09-18T03:19:16;16.87;;;5.00;;
74658;SDS011;63186;51.204;6.536;2023-09-18T03:21:41;11.00;;;5.60;;
74658;SDS011;63186;51.204;6.536;2023-09-18T03:24:07;10.73;;;5.43;;
74658;SDS011;63186;51.204;6.536;2023-09-18T03:26:32;10.73;;;5.20;;
74658;SDS011;63186;51.204;6.536;2023-09-18T03:28:57;10.83;;;6.30;;
74658;SDS011;63186;51.204;6.536;2023-09-18T03:31:23;11.97;;;5.73;;
74658;SDS011;63186;51.204;6.536;2023-09-18T03:33:48;14.43;;;6.47;;
74658;SDS011;63186;51.204;6.536;2023-09-18T03:36:13;11.63;;;5.73;;
74658;SDS011;63186;51.204;6.536;2023-09-18T03:38:39;11.93;;;5.82;;
74658;SDS011;63186;51.204;6.536;2023-09-18T03:41:05;13.00;;;5.13;;
74658;SDS011;63186;51.204;6.536;2023-09-18T03:43:30;11.67;;;5.57;;
74658;SDS011;63186;51.204;6.536;2023-09-18T03:46:02;11.17;;;5.70;;
74658;SDS011;63186;51.204;6.536;2023-09-18T03:48:30;11.13;;;5.28;;
74658;SDS011;63186;51.204;6.536;2023-09-18T03:51:01;11.52;;;5.05;;
74658;SDS011;63186;51.204;6.536;2023-09-18T03:53:26;10.45;;;4.93;;
74658;SDS011;63186;51.204;6.536;2023-09-18T03:55:51;8.37;;;4.17;;
74658;SDS011;63186;51.204;6.536;2023-09-18T03:58:17;10.27;;;4.57;;
74658;SDS011;63186;51.204;6.536;2023-09-18T04:00:42;11.37;;;4.77;;
74658;SDS011;63186;51.204;6.536;2023-09-18T04:03:08;10.38;;;4.65;;
74658;SDS011;63186;51.204;6.536;2023-09-18T04:05:34;9.70;;;4.63;;
74658;SDS011;63186;51.204;6.536;2023-09-18T04:07:59;7.93;;;3.78;;
74658;SDS011;63186;51.204;6.536;2023-09-18T04:10:24;8.20;;;3.70;;
74658;SDS011;63186;51.204;6.536;2023-09-18T04:12:51;8.98;;;4.50;;
74658;SDS011;63186;51.204;6.536;2023-09-18T04:15:16;7.65;;;3.83;;
74658;SDS011;63186;51.204;6.536;2023-09-18T04:17:43;8.93;;;3.80;;
74658;SDS011;63186;51.204;6.536;2023-09-18T04:20:08;9.77;;;3.30;;
74658;SDS011;63186;51.204;6.536;2023-09-18T04:22:34;8.13;;;3.50;;
74658;SDS011;63186;51.204;6.536;2023-09-18T04:25:00;8.53;;;3.53;;
74658;SDS011;63186;51.204;6.536;2023-09-18T04:27:25;8.50;;;3.40;;
74658;SDS011;63186;51.204;6.536;2023-09-18T04:29:50;8.80;;;3.20;;
74658;SDS011;63186;51.204;6.536;2023-09-18T04:32:15;11.53;;;3.57;;
74658;SDS011;63186;51.204;6.536;2023-09-18T04:34:40;6.70;;;2.73;;
74658;SDS011;63186;51.204;6.536;2023-09-18T04:37:07;8.98;;;3.20;;
74658;SDS011;63186;51.204;6.536;2023-09-18T04:39:32;8.75;;;3.78;;
74658;SDS011;63186;51.204;6.536;2023-09-18T04:41:59;7.43;;;3.00;;
74658;SDS011;63186;51.204;6.536;2023-09-18T04:44:28;10.57;;;3.28;;
74658;SDS011;63186;51.204;6.536;2023-09-18T04:46:54;6.85;;;2.72;;
74658;SDS011;63186;51.204;6.536;2023-09-18T04:49:19;7.03;;;2.83;;
74658;SDS011;63186;51.204;6.536;2023-09-18T04:51:44;6.13;;;2.53;;
74658;SDS011;63186;51.204;6.536;2023-09-18T04:54:09;10.03;;;2.93;;
74658;SDS011;63186;51.204;6.536;2023-09-18T04:56:35;7.70;;;2.67;;
74658;SDS011;63186;51.204;6.536;2023-09-18T04:59:00;7.07;;;2.47;;
74658;SDS011;63186;51.204;6.536;2023-09-18T05:01:25;9.53;;;2.73;;
74658;SDS011;63186;51.204;6.536;2023-09-18T05:03:50;8.23;;;2.60;;
74658;SDS011;63186;51.204;6.536;2023-09-18T05:06:16;7.93;;;2.80;;
74658;SDS011;63186;51.204;6.536;2023-09-18T05:08:43;5.97;;;2.50;;
74658;SDS011;63186;51.204;6.536;2023-09-18T05:11:09;7.75;;;2.40;;
74658;SDS011;63186;51.204;6.536;2023-09-18T05:13:34;12.80;;;2.47;;
74658;SDS011;63186;51.204;6.536;2023-09-18T05:15:59;10.53;;;2.57;;
74658;SDS011;63186;51.204;6.536;2023-09-18T05:18:25;9.32;;;3.53;;
74658;SDS011;63186;51.204;6.536;2023-09-18T05:20:51;6.18;;;2.58;;
74658;SDS011;63186;51.204;6.536;2023-09-18T05:23:16;5.85;;;2.80;;
74658;SDS011;63186;51.204;6.536;2023-09-18T05:25:42;6.82;;;2.88;;
74658;SDS011;63186;51.204;6.536;2023-09-18T05:28:09;7.47;;;2.50;;
74658;SDS011;63186;51.204;6.536;2023-09-18T05:30:34;6.85;;;2.75;;
74658;SDS011;63186;51.204;6.536;2023-09-18T05:33:03;6.50;;;2.70;;
74658;SDS011;63186;51.204;6.536;2023-09-18T05:35:36;9.23;;;3.33;;
74658;SDS011;63186;51.204;6.536;2023-09-18T05:38:05;6.85;;;3.25;;
74658;SDS011;63186;51.204;6.536;2023-09-18T05:40:31;7.38;;;2.83;;
74658;SDS011;63186;51.204;6.536;2023-09-18T05:42:57;8.63;;;3.15;;
74658;SDS011;63186;51.204;6.536;2023-09-18T05:45:23;6.60;;;2.53;;
74658;SDS011;63186;51.204;6.536;2023-09-18T05:47:49;8.50;;;3.00;;
74658;SDS011;63186;51.204;6.536;2023-09-18T05:50:14;8.38;;;3.83;;
74658;SDS011;63186;51.204;6.536;2023-09-18T05:52:45;8.88;;;2.97;;
74658;SDS011;63186;51.204;6.536;2023-09-18T05:55:12;8.48;;;3.40;;
74658;SDS011;63186;51.204;6.536;2023-09-18T05:57:39;6.55;;;3.00;;
74658;SDS011;63186;51.204;6.536;2023-09-18T06:00:05;9.13;;;3.30;;
74658;SDS011;63186;51.204;6.536;2023-09-18T06:02:30;6.57;;;2.55;;
74658;SDS011;63186;51.204;6.536;2023-09-18T06:04:56;9.60;;;3.07;;
74658;SDS011;63186;51.204;6.536;2023-09-18T06:07:24;6.35;;;2.47;;
74658;SDS011;63186;51.204;6.536;2023-09-18T06:09:50;6.65;;;3.33;;
74658;SDS011;63186;51.204;6.536;2023-09-18T06:12:15;7.30;;;2.53;;
74658;SDS011;63186;51.204;6.536;2023-09-18T06:14:41;9.30;;;2.40;;
74658;SDS011;63186;51.204;6.536;2023-09-18T06:17:06;8.87;;;2.63;;
74658;SDS011;63186;51.204;6.536;2023-09-18T06:19:31;5.33;;;2.33;;
74658;SDS011;63186;51.204;6.536;2023-09-18T06:21:57;5.10;;;1.90;;
74658;SDS011;63186;51.204;6.536;2023-09-18T06:24:23;6.17;;;2.23;;
74658;SDS011;63186;51.204;6.536;2023-09-18T06:26:48;3.80;;;1.43;;
74658;SDS011;63186;51.204;6.536;2023-09-18T06:29:13;5.17;;;1.90;;
74658;SDS011;63186;51.204;6.536;2023-09-18T06:31:39;3.70;;;1.70;;
74658;SDS011;63186;51.204;6.536;2023-09-18T06:34:04;2.80;;;1.30;;
74658;SDS011;63186;51.204;6.536;2023-09-18T06:36:30;4.20;;;1.40;;
74658;SDS011;63186;51.204;6.536;2023-09-18T06:38:55;4.03;;;1.40;;
74658;SDS011;63186;51.204;6.536;2023-09-18T06:41:20;5.77;;;1.50;;
74658;SDS011;63186;51.204;6.536;2023-09-18T06:43:46;3.53;;;1.37;;
74658;SDS011;63186;51.204;6.536;2023-09-18T06:46:11;4.90;;;1.30;;
74658;SDS011;63186;51.204;6.536;2023-09-18T06:48:36;3.60;;;1.30;;
74658;SDS011;63186;51.204;6.536;2023-09-18T06:51:01;3.40;;;1.30;;
74658;SDS011;63186;51.204;6.536;2023-09-18T06:53:27;4.07;;;1.35;;
74658;SDS011;63186;51.204;6.536;2023-09-18T06:55:53;3.43;;;1.30;;
74658;SDS011;63186;51.204;6.536;2023-09-18T06:58:18;2.75;;;1.30;;
74658;SDS011;63186;51.204;6.536;2023-09-18T07:00:44;4.13;;;1.40;;
74658;SDS011;63186;51.204;6.536;2023-09-18T07:03:09;5.47;;;1.40;;
74658;SDS011;63186;51.204;6.536;2023-09-18T07:05:36;3.85;;;1.05;;
74658;SDS011;63186;51.204;6.536;2023-09-18T07:08:02;3.55;;;1.23;;
74658;SDS011;63186;51.204;6.536;2023-09-18T07:10:29;4.65;;;1.30;;
74658;SDS011;63186;51.204;6.536;2023-09-18T07:12:55;3.70;;;1.40;;
74658;SDS011;63186;51.204;6.536;2023-09-18T07:15:20;4.13;;;1.40;;
74658;SDS011;63186;51.204;6.536;2023-09-18T07:17:45;3.63;;;1.50;;
74658;SDS011;63186;51.204;6.536;2023-09-18T07:20:10;2.50;;;1.20;;
74658;SDS011;63186;51.204;6.536;2023-09-18T07:22:39;4.30;;;1.42;;
74658;SDS011;63186;51.204;6.536;2023-09-18T07:25:06;6.15;;;1.40;;
74658;SDS011;63186;51.204;6.536;2023-09-18T07:27:32;4.97;;;1.20;;
74658;SDS011;63186;51.204;6.536;2023-09-18T07:29:57;4.25;;;1.10;;
74658;SDS011;63186;51.204;6.536;2023-09-18T07:32:22;3.40;;;1.15;;
74658;SDS011;63186;51.204;6.536;2023-09-18T07:34:50;3.95;;;1.17;;
74658;SDS011;63186;51.204;6.536;2023-09-18T07:37:16;2.80;;;1.27;;
74658;SDS011;63186;51.204;6.536;2023-09-18T07:39:45;3.33;;;1.10;;
74658;SDS011;63186;51.204;6.536;2023-09-18T07:42:11;3.65;;;1.23;;
74658;SDS011;63186;51.204;6.536;2023-09-18T07:44:36;4.65;;;1.58;;
74658;SDS011;63186;51.204;6.536;2023-09-18T07:47:02;3.83;;;1.00;;
74658;SDS011;63186;51.204;6.536;2023-09-18T07:49:27;5.18;;;1.65;;
74658;SDS011;63186;51.204;6.536;2023-09-18T07:51:52;4.90;;;1.33;;
74658;SDS011;63186;51.204;6.536;2023-09-18T07:54:18;5.50;;;1.20;;
74658;SDS011;63186;51.204;6.536;2023-09-18T07:56:43;3.20;;;1.30;;
74658;SDS011;63186;51.204;6.536;2023-09-18T07:59:08;3.63;;;1.30;;
74658;SDS011;63186;51.204;6.536;2023-09-18T08:01:35;4.13;;;1.35;;
74658;SDS011;63186;51.204;6.536;2023-09-18T08:04:00;3.07;;;1.03;;
74658;SDS011;63186;51.204;6.536;2023-09-18T08:06:25;5.30;;;1.47;;
74658;SDS011;63186;51.204;6.536;2023-09-18T08:08:51;3.17;;;1.30;;
74658;SDS011;63186;51.204;6.536;2023-09-18T08:11:16;4.53;;;1.27;;
74658;SDS011;63186;51.204;6.536;2023-09-18T08:13:41;4.23;;;1.30;;
74658;SDS011;63186;51.204;6.536;2023-09-18T08:16:08;3.20;;;1.30;;
74658;SDS011;63186;51.204;6.536;2023-09-18T08:18:34;3.20;;;1.30;;
74658;SDS011;63186;51.204;6.536;2023-09-18T08:20:59;4.38;;;1.65;;
74658;SDS011;63186;51.204;6.536;2023-09-18T08:23:25;1.85;;;1.13;;
74658;SDS011;63186;51.204;6.536;2023-09-18T08:25:50;3.17;;;1.10;;
74658;SDS011;63186;51.204;6.536;2023-09-18T08:28:22;3.05;;;1.30;;
74658;SDS011;63186;51.204;6.536;2023-09-18T08:30:47;2.38;;;1.13;;
74658;SDS011;63186;51.204;6.536;2023-09-18T08:33:13;2.88;;;1.20;;
74658;SDS011;63186;51.204;6.536;2023-09-18T08:35:39;4.68;;;1.25;;
74658;SDS011;63186;51.204;6.536;2023-09-18T08:38:04;2.78;;;1.42;;
74658;SDS011;63186;51.204;6.536;2023-09-18T08:40:30;5.43;;;1.17;;
74658;SDS011;63186;51.204;6.536;2023-09-18T08:42:55;4.05;;;1.40;;
74658;SDS011;63186;51.204;6.536;2023-09-18T08:45:46;4.50;;;1.30;;
74658;SDS011;63186;51.204;6.536;2023-09-18T08:48:17;2.83;;;1.10;;
74658;SDS011;63186;51.204;6.536;2023-09-18T08:50:42;6.47;;;1.52;;
74658;SDS011;63186;51.204;6.536;2023-09-18T08:53:09;2.10;;;0.90;;
74658;SDS011;63186;51.204;6.536;2023-09-18T08:55:34;3.25;;;1.20;;
74658;SDS011;63186;51.204;6.536;2023-09-18T08:57:59;3.95;;;1.10;;
74658;SDS011;63186;51.204;6.536;2023-09-18T09:00:25;4.15;;;1.23;;
74658;SDS011;63186;51.204;6.536;2023-09-18T09:02:51;7.13;;;2.00;;
74658;SDS011;63186;51.204;6.536;2023-09-18T09:05:19;5.10;;;1.48;;
74658;SDS011;63186;51.204;6.536;2023-09-18T09:07:45;2.08;;;1.10;;
74658;SDS011;63186;51.204;6.536;2023-09-18T09:10:11;2.90;;;0.97;;
74658;SDS011;63186;51.204;6.536;2023-09-18T09:12:53;4.37;;;1.27;;
74658;SDS011;63186;51.204;6.536;2023-09-18T09:15:23;7.28;;;1.15;;
74658;SDS011;63186;51.204;6.536;2023-09-18T09:17:51;4.95;;;1.60;;
74658;SDS011;63186;51.204;6.536;2023-09-18T09:20:17;2.60;;;1.00;;
74658;SDS011;63186;51.204;6.536;2023-09-18T09:22:43;3.60;;;1.30;;
74658;SDS011;63186;51.204;6.536;2023-09-18T09:27:46;4.22;;;1.25;;
74658;SDS011;63186;51.204;6.536;2023-09-18T09:30:17;3.53;;;1.27;;
74658;SDS011;63186;51.204;6.536;2023-09-18T09:32:44;3.60;;;1.42;;
74658;SDS011;63186;51.204;6.536;2023-09-18T09:35:18;2.80;;;1.27;;
74658;SDS011;63186;51.204;6.536;2023-09-18T09:37:49;3.80;;;1.23;;
74658;SDS011;63186;51.204;6.536;2023-09-18T09:40:16;4.90;;;1.45;;
74658;SDS011;63186;51.204;6.536;2023-09-18T09:42:43;3.22;;;1.30;;
74658;SDS011;63186;51.204;6.536;2023-09-18T09:45:12;4.40;;;1.30;;
74658;SDS011;63186;51.204;6.536;2023-09-18T09:47:42;6.57;;;1.58;;
74658;SDS011;63186;51.204;6.536;2023-09-18T09:50:09;2.72;;;1.45;;
74658;SDS011;63186;51.204;6.536;2023-09-18T09:52:41;2.28;;;1.08;;
74658;SDS011;63186;51.204;6.536;2023-09-18T09:55:22;2.00;;;1.10;;
74658;SDS011;63186;51.204;6.536;2023-09-18T09:57:54;3.97;;;1.55;;
74658;SDS011;63186;51.204;6.536;2023-09-18T10:00:29;4.55;;;1.30;;
74658;SDS011;63186;51.204;6.536;2023-09-18T10:03:07;5.25;;;1.52;;
74658;SDS011;63186;51.204;6.536;2023-09-18T10:05:40;3.08;;;1.30;;
74658;SDS011;63186;51.204;6.536;2023-09-18T10:08:25;3.72;;;1.45;;
74658;SDS011;63186;51.204;6.536;2023-09-18T10:10:53;3.25;;;1.23;;
74658;SDS011;63186;51.204;6.536;2023-09-18T10:13:46;5.82;;;1.33;;
74658;SDS011;63186;51.204;6.536;2023-09-18T10:16:14;3.50;;;1.45;;
74658;SDS011;63186;51.204;6.536;2023-09-18T10:27:00;3.75;;;1.40;;
74658;SDS011;63186;51.204;6.536;2023-09-18T10:29:29;2.75;;;1.10;;
74658;SDS011;63186;51.204;6.536;2023-09-18T10:31:56;3.05;;;1.20;;
74658;SDS011;63186;51.204;6.536;2023-09-18T10:34:22;3.90;;;1.20;;
74658;SDS011;63186;51.204;6.536;2023-09-18T10:36:49;3.35;;;1.45;;
74658;SDS011;63186;51.204;6.536;2023-09-18T10:39:16;4.88;;;1.35;;
74658;SDS011;63186;51.204;6.536;2023-09-18T10:41:47;3.58;;;1.50;;
74658;SDS011;63186;51.204;6.536;2023-09-18T10:44:14;2.05;;;1.10;;
74658;SDS011;63186;51.204;6.536;2023-09-18T10:46:41;3.47;;;1.23;;
74658;SDS011;63186;51.204;6.536;2023-09-18T10:49:07;3.58;;;1.20;;
74658;SDS011;63186;51.204;6.536;2023-09-18T10:51:32;5.03;;;1.30;;
74658;SDS011;63186;51.204;6.536;2023-09-18T10:54:03;1.98;;;1.02;;
74658;SDS011;63186;51.204;6.536;2023-09-18T10:56:28;3.10;;;1.13;;
74658;SDS011;63186;51.204;6.536;2023-09-18T10:58:58;3.25;;;1.40;;
74658;SDS011;63186;51.204;6.536;2023-09-18T11:01:24;7.60;;;1.63;;
74658;SDS011;63186;51.204;6.536;2023-09-18T11:06:17;5.55;;;1.33;;
74658;SDS011;63186;51.204;6.536;2023-09-18T11:08:46;4.32;;;1.40;;
74658;SDS011;63186;51.204;6.536;2023-09-18T11:11:17;3.92;;;1.52;;
74658;SDS011;63186;51.204;6.536;2023-09-18T11:13:46;3.03;;;1.45;;
74658;SDS011;63186;51.204;6.536;2023-09-18T11:18:53;3.58;;;1.27;;
74658;SDS011;63186;51.204;6.536;2023-09-18T11:21:25;5.05;;;1.98;;
74658;SDS011;63186;51.204;6.536;2023-09-18T11:23:59;3.35;;;1.38;;
74658;SDS011;63186;51.204;6.536;2023-09-18T11:26:29;3.70;;;1.30;;
74658;SDS011;63186;51.204;6.536;2023-09-18T11:28:58;4.90;;;1.40;;
74658;SDS011;63186;51.204;6.536;2023-09-18T11:31:40;4.28;;;1.35;;
74658;SDS011;63186;51.204;6.536;2023-09-18T11:34:11;4.88;;;1.52;;
74658;SDS011;63186;51.204;6.536;2023-09-18T11:36:38;4.20;;;1.80;;
74658;SDS011;63186;51.204;6.536;2023-09-18T11:39:05;3.40;;;1.55;;
74658;SDS011;63186;51.204;6.536;2023-09-18T11:41:31;3.10;;;1.23;;
74658;SDS011;63186;51.204;6.536;2023-09-18T11:44:47;23.30;;;4.47;;
74658;SDS011;63186;51.204;6.536;2023-09-18T11:46:52;5.40;;;1.35;;
74658;SDS011;63186;51.204;6.536;2023-09-18T11:49:19;16.38;;;3.60;;
74658;SDS011;63186;51.204;6.536;2023-09-18T11:51:46;23.10;;;5.22;;
74658;SDS011;63186;51.204;6.536;2023-09-18T11:54:12;13.05;;;3.22;;
74658;SDS011;63186;51.204;6.536;2023-09-18T11:56:39;4.28;;;1.58;;
74658;SDS011;63186;51.204;6.536;2023-09-18T11:59:04;17.17;;;3.63;;
74658;SDS011;63186;51.204;6.536;2023-09-18T12:01:31;6.68;;;1.83;;
74658;SDS011;63186;51.204;6.536;2023-09-18T12:04:01;6.45;;;2.20;;
74658;SDS011;63186;51.204;6.536;2023-09-18T12:06:32;23.77;;;5.78;;
74658;SDS011;63186;51.204;6.536;2023-09-18T12:08:58;7.55;;;1.67;;
74658;SDS011;63186;51.204;6.536;2023-09-18T12:11:23;3.42;;;1.23;;
74658;SDS011;63186;51.204;6.536;2023-09-18T12:13:52;5.43;;;1.50;;
74658;SDS011;63186;51.204;6.536;2023-09-18T12:16:17;5.80;;;1.70;;
74658;SDS011;63186;51.204;6.536;2023-09-18T12:18:46;25.13;;;4.88;;
74658;SDS011;63186;51.204;6.536;2023-09-18T12:21:15;13.40;;;1.92;;
74658;SDS011;63186;51.204;6.536;2023-09-18T12:23:45;11.95;;;2.67;;
74658;SDS011;63186;51.204;6.536;2023-09-18T12:26:11;12.15;;;3.08;;
74658;SDS011;63186;51.204;6.536;2023-09-18T12:28:38;13.30;;;2.88;;
74658;SDS011;63186;51.204;6.536;2023-09-18T12:31:04;2.70;;;1.20;;
74658;SDS011;63186;51.204;6.536;2023-09-18T12:33:37;2.42;;;1.30;;
74658;SDS011;63186;51.204;6.536;2023-09-18T12:36:05;2.78;;;1.30;;
74658;SDS011;63186;51.204;6.536;2023-09-18T12:38:31;5.70;;;1.38;;
74658;SDS011;63186;51.204;6.536;2023-09-18T12:40:58;5.07;;;1.40;;
74658;SDS011;63186;51.204;6.536;2023-09-18T12:43:32;3.00;;;1.30;;
74658;SDS011;63186;51.204;6.536;2023-09-18T12:45:59;5.85;;;1.60;;
74658;SDS011;63186;51.204;6.536;2023-09-18T12:48:24;5.18;;;1.52;;
74658;SDS011;63186;51.204;6.536;2023-09-18T12:50:52;2.47;;;1.23;;
74658;SDS011;63186;51.204;6.536;2023-09-18T12:53:21;4.03;;;1.40;;
74658;SDS011;63186;51.204;6.536;2023-09-18T12:55:47;23.23;;;5.05;;
74658;SDS011;63186;51.204;6.536;2023-09-18T12:58:18;37.50;;;6.55;;
74658;SDS011;63186;51.204;6.536;2023-09-18T13:00:45;11.68;;;2.40;;
74658;SDS011;63186;51.204;6.536;2023-09-18T13:03:17;17.35;;;3.40;;
74658;SDS011;63186;51.204;6.536;2023-09-18T13:05:43;6.03;;;1.45;;
74658;SDS011;63186;51.204;6.536;2023-09-18T13:08:08;4.40;;;1.73;;
74658;SDS011;63186;51.204;6.536;2023-09-18T13:10:47;2.08;;;1.02;;
74658;SDS011;63186;51.204;6.536;2023-09-18T13:13:24;4.68;;;1.35;;
74658;SDS011;63186;51.204;6.536;2023-09-18T13:15:50;2.45;;;1.10;;
74658;SDS011;63186;51.204;6.536;2023-09-18T13:18:16;3.90;;;1.80;;
74658;SDS011;63186;51.204;6.536;2023-09-18T13:20:43;2.88;;;1.40;;
74658;SDS011;63186;51.204;6.536;2023-09-18T13:23:09;2.92;;;1.40;;
74658;SDS011;63186;51.204;6.536;2023-09-18T13:25:38;4.07;;;1.30;;
74658;SDS011;63186;51.204;6.536;2023-09-18T13:28:08;2.63;;;1.13;;
74658;SDS011;63186;51.204;6.536;2023-09-18T13:30:35;4.13;;;1.58;;
74658;SDS011;63186;51.204;6.536;2023-09-18T13:33:22;3.33;;;1.55;;
74658;SDS011;63186;51.204;6.536;2023-09-18T13:35:48;3.00;;;1.20;;
74658;SDS011;63186;51.204;6.536;2023-09-18T13:38:14;3.25;;;1.52;;
74658;SDS011;63186;51.204;6.536;2023-09-18T13:40:39;3.03;;;1.40;;
74658;SDS011;63186;51.204;6.536;2023-09-18T13:43:05;16.42;;;4.00;;
74658;SDS011;63186;51.204;6.536;2023-09-18T13:45:32;29.23;;;5.05;;
74658;SDS011;63186;51.204;6.536;2023-09-18T13:48:00;21.23;;;3.92;;
74658;SDS011;63186;51.204;6.536;2023-09-18T13:50:26;13.77;;;3.05;;
74658;SDS011;63186;51.204;6.536;2023-09-18T13:52:51;6.28;;;1.60;;
74658;SDS011;63186;51.204;6.536;2023-09-18T13:55:17;5.07;;;1.50;;
74658;SDS011;63186;51.204;6.536;2023-09-18T13:57:43;6.20;;;1.77;;
74658;SDS011;63186;51.204;6.536;2023-09-18T14:00:09;4.33;;;1.37;;
74658;SDS011;63186;51.204;6.536;2023-09-18T14:02:37;2.75;;;1.35;;
74658;SDS011;63186;51.204;6.536;2023-09-18T14:05:05;4.78;;;1.48;;
74658;SDS011;63186;51.204;6.536;2023-09-18T14:07:32;2.53;;;1.13;;
74658;SDS011;63186;51.204;6.536;2023-09-18T14:09:57;3.97;;;1.52;;
74658;SDS011;63186;51.204;6.536;2023-09-18T14:12:23;2.83;;;1.23;;
74658;SDS011;63186;51.204;6.536;2023-09-18T14:14:49;4.32;;;1.42;;
74658;SDS011;63186;51.204;6.536;2023-09-18T14:17:15;4.35;;;1.33;;
74658;SDS011;63186;51.204;6.536;2023-09-18T14:19:43;2.20;;;1.10;;
74658;SDS011;63186;51.204;6.536;2023-09-18T14:22:11;4.95;;;1.60;;
74658;SDS011;63186;51.204;6.536;2023-09-18T14:24:37;2.85;;;1.23;;
74658;SDS011;63186;51.204;6.536;2023-09-18T14:27:02;3.90;;;1.53;;
74658;SDS011;63186;51.204;6.536;2023-09-18T14:29:28;3.63;;;1.83;;
74658;SDS011;63186;51.204;6.536;2023-09-18T14:31:58;2.97;;;1.40;;
74658;SDS011;63186;51.204;6.536;2023-09-18T14:34:24;3.10;;;1.50;;
74658;SDS011;63186;51.204;6.536;2023-09-18T14:36:49;2.63;;;1.20;;
74658;SDS011;63186;51.204;6.536;2023-09-18T14:39:14;4.57;;;1.83;;
74658;SDS011;63186;51.204;6.536;2023-09-18T14:41:39;24.67;;;5.67;;
74658;SDS011;63186;51.204;6.536;2023-09-18T14:44:05;14.30;;;3.20;;
74658;SDS011;63186;51.204;6.536;2023-09-18T14:46:33;3.97;;;1.55;;
74658;SDS011;63186;51.204;6.536;2023-09-18T14:49:00;5.22;;;1.70;;
74658;SDS011;63186;51.204;6.536;2023-09-18T14:51:26;4.80;;;1.30;;
74658;SDS011;63186;51.204;6.536;2023-09-18T14:53:53;3.58;;;1.33;;
74658;SDS011;63186;51.204;6.536;2023-09-18T14:56:19;3.67;;;1.25;;
74658;SDS011;63186;51.204;6.536;2023-09-18T14:58:44;4.97;;;1.50;;
74658;SDS011;63186;51.204;6.536;2023-09-18T15:01:09;2.73;;;1.20;;
74658;SDS011;63186;51.204;6.536;2023-09-18T15:03:35;4.18;;;1.60;;
74658;SDS011;63186;51.204;6.536;2023-09-18T15:06:00;2.33;;;1.38;;